sensor_id;sensor_type;location;lat;lon;timestamp;P1;durP1;ratioP1;P2;durP2;ratioP2
14396;SDS011;50653;47.810;13.022;2023-07-02T00:01:45;4.13;;;3.73;;
14396;SDS011;50653;47.810;13.022;2023-07-02T00:04:11;3.43;;;2.50;;
14396;SDS011;50653;47.810;13.022;2023-07-02T00:06:41;3.30;;;3.10;;
14396;SDS011;50653;47.810;13.022;2023-07-02T00:09:07;3.90;;;3.60;;
14396;SDS011;50653;47.810;13.022;2023-07-02T00:11:35;4.03;;;3.60;;
14396;SDS011;50653;47.810;13.022;2023-07-02T00:14:01;3.00;;;2.80;;
14396;SDS011;50653;47.810;13.022;2023-07-02T00:16:27;3.70;;;3.50;;
14396;SDS011;50653;47.810;13.022;2023-07-02T00:18:52;3.97;;;3.70;;
14396;SDS011;50653;47.810;13.022;2023-07-02T00:21:18;3.60;;;2.97;;
14396;SDS011;50653;47.810;13.022;2023-07-02T00:23:46;3.17;;;3.03;;
14396;SDS011;50653;47.810;13.022;2023-07-02T00:26:12;3.23;;;2.90;;
14396;SDS011;50653;47.810;13.022;2023-07-02T00:28:38;3.00;;;2.87;;
14396;SDS011;50653;47.810;13.022;2023-07-02T00:31:05;2.60;;;2.40;;
14396;SDS011;50653;47.810;13.022;2023-07-02T00:33:31;3.40;;;2.90;;
14396;SDS011;50653;47.810;13.022;2023-07-02T00:35:57;3.23;;;2.60;;
14396;SDS011;50653;47.810;13.022;2023-07-02T00:38:25;2.80;;;2.63;;
14396;SDS011;50653;47.810;13.022;2023-07-02T00:40:51;2.73;;;2.53;;
14396;SDS011;50653;47.810;13.022;2023-07-02T00:43:16;2.50;;;2.40;;
14396;SDS011;50653;47.810;13.022;2023-07-02T00:45:42;2.70;;;2.50;;
14396;SDS011;50653;47.810;13.022;2023-07-02T00:48:10;2.10;;;2.00;;
14396;SDS011;50653;47.810;13.022;2023-07-02T00:50:36;1.50;;;1.40;;
14396;SDS011;50653;47.810;13.022;2023-07-02T00:53:02;1.27;;;1.17;;
14396;SDS011;50653;47.810;13.022;2023-07-02T00:55:28;1.70;;;1.60;;
14396;SDS011;50653;47.810;13.022;2023-07-02T00:57:53;1.50;;;1.40;;
14396;SDS011;50653;47.810;13.022;2023-07-02T01:00:21;1.50;;;1.40;;
14396;SDS011;50653;47.810;13.022;2023-07-02T01:02:54;1.10;;;1.00;;
14396;SDS011;50653;47.810;13.022;2023-07-02T01:05:28;1.37;;;0.90;;
14396;SDS011;50653;47.810;13.022;2023-07-02T01:08:01;1.53;;;1.43;;
14396;SDS011;50653;47.810;13.022;2023-07-02T01:10:30;1.53;;;1.20;;
14396;SDS011;50653;47.810;13.022;2023-07-02T01:13:00;1.40;;;1.30;;
14396;SDS011;50653;47.810;13.022;2023-07-02T01:15:28;7.47;;;1.60;;
14396;SDS011;50653;47.810;13.022;2023-07-02T01:17:54;1.70;;;1.60;;
14396;SDS011;50653;47.810;13.022;2023-07-02T01:20:20;1.90;;;1.70;;
14396;SDS011;50653;47.810;13.022;2023-07-02T01:22:48;2.00;;;1.90;;
14396;SDS011;50653;47.810;13.022;2023-07-02T01:25:16;4.80;;;2.30;;
14396;SDS011;50653;47.810;13.022;2023-07-02T01:27:43;3.00;;;2.53;;
14396;SDS011;50653;47.810;13.022;2023-07-02T01:30:09;2.50;;;2.37;;
14396;SDS011;50653;47.810;13.022;2023-07-02T01:32:36;2.97;;;2.77;;
14396;SDS011;50653;47.810;13.022;2023-07-02T01:35:03;2.63;;;2.43;;
14396;SDS011;50653;47.810;13.022;2023-07-02T01:37:28;3.30;;;3.00;;
14396;SDS011;50653;47.810;13.022;2023-07-02T01:40:02;2.80;;;2.70;;
14396;SDS011;50653;47.810;13.022;2023-07-02T01:42:31;2.93;;;2.57;;
14396;SDS011;50653;47.810;13.022;2023-07-02T01:44:57;3.57;;;3.37;;
14396;SDS011;50653;47.810;13.022;2023-07-02T01:47:23;3.10;;;2.90;;
14396;SDS011;50653;47.810;13.022;2023-07-02T01:49:49;3.80;;;3.50;;
14396;SDS011;50653;47.810;13.022;2023-07-02T01:52:15;3.37;;;2.83;;
14396;SDS011;50653;47.810;13.022;2023-07-02T01:54:41;4.17;;;3.90;;
14396;SDS011;50653;47.810;13.022;2023-07-02T01:57:08;3.27;;;3.03;;
14396;SDS011;50653;47.810;13.022;2023-07-02T01:59:34;3.30;;;3.10;;
14396;SDS011;50653;47.810;13.022;2023-07-02T02:01:59;3.50;;;3.30;;
14396;SDS011;50653;47.810;13.022;2023-07-02T02:04:26;3.20;;;2.87;;
14396;SDS011;50653;47.810;13.022;2023-07-02T02:06:52;3.67;;;3.47;;
14396;SDS011;50653;47.810;13.022;2023-07-02T02:09:18;4.33;;;4.13;;
14396;SDS011;50653;47.810;13.022;2023-07-02T02:11:53;5.07;;;4.77;;
14396;SDS011;50653;47.810;13.022;2023-07-02T02:14:19;4.80;;;4.40;;
14396;SDS011;50653;47.810;13.022;2023-07-02T02:16:44;4.97;;;4.67;;
14396;SDS011;50653;47.810;13.022;2023-07-02T02:19:13;4.63;;;4.40;;
14396;SDS011;50653;47.810;13.022;2023-07-02T02:21:40;4.00;;;3.80;;
14396;SDS011;50653;47.810;13.022;2023-07-02T02:24:06;4.23;;;3.93;;
14396;SDS011;50653;47.810;13.022;2023-07-02T02:26:32;3.63;;;3.43;;
14396;SDS011;50653;47.810;13.022;2023-07-02T02:28:59;3.87;;;3.40;;
14396;SDS011;50653;47.810;13.022;2023-07-02T02:31:25;3.60;;;3.40;;
14396;SDS011;50653;47.810;13.022;2023-07-02T02:33:51;3.03;;;2.80;;
14396;SDS011;50653;47.810;13.022;2023-07-02T02:36:18;2.97;;;2.77;;
14396;SDS011;50653;47.810;13.022;2023-07-02T02:38:44;3.20;;;3.00;;
14396;SDS011;50653;47.810;13.022;2023-07-02T02:41:10;3.30;;;3.07;;
14396;SDS011;50653;47.810;13.022;2023-07-02T02:43:43;4.00;;;3.30;;
14396;SDS011;50653;47.810;13.022;2023-07-02T02:46:11;3.03;;;2.83;;
14396;SDS011;50653;47.810;13.022;2023-07-02T02:48:37;3.70;;;3.50;;
14396;SDS011;50653;47.810;13.022;2023-07-02T02:51:03;3.73;;;3.53;;
14396;SDS011;50653;47.810;13.022;2023-07-02T02:53:29;4.10;;;3.90;;
14396;SDS011;50653;47.810;13.022;2023-07-02T02:55:54;2.93;;;2.73;;
14396;SDS011;50653;47.810;13.022;2023-07-02T02:58:20;3.20;;;3.10;;
14396;SDS011;50653;47.810;13.022;2023-07-02T03:00:48;4.10;;;3.80;;
14396;SDS011;50653;47.810;13.022;2023-07-02T03:03:14;3.90;;;3.70;;
14396;SDS011;50653;47.810;13.022;2023-07-02T03:05:42;3.57;;;3.30;;
14396;SDS011;50653;47.810;13.022;2023-07-02T03:08:09;4.70;;;4.40;;
14396;SDS011;50653;47.810;13.022;2023-07-02T03:10:34;3.93;;;3.73;;
14396;SDS011;50653;47.810;13.022;2023-07-02T03:13:00;3.50;;;3.30;;
14396;SDS011;50653;47.810;13.022;2023-07-02T03:15:26;6.27;;;4.80;;
14396;SDS011;50653;47.810;13.022;2023-07-02T03:17:51;4.03;;;3.83;;
14396;SDS011;50653;47.810;13.022;2023-07-02T03:20:17;4.20;;;4.00;;
14396;SDS011;50653;47.810;13.022;2023-07-02T03:22:43;4.30;;;4.00;;
14396;SDS011;50653;47.810;13.022;2023-07-02T03:25:08;4.00;;;3.80;;
14396;SDS011;50653;47.810;13.022;2023-07-02T03:27:34;3.20;;;3.10;;
14396;SDS011;50653;47.810;13.022;2023-07-02T03:30:00;4.00;;;3.80;;
14396;SDS011;50653;47.810;13.022;2023-07-02T03:32:25;5.63;;;4.47;;
14396;SDS011;50653;47.810;13.022;2023-07-02T03:34:51;3.67;;;3.47;;
14396;SDS011;50653;47.810;13.022;2023-07-02T03:37:17;3.50;;;3.30;;
14396;SDS011;50653;47.810;13.022;2023-07-02T03:39:43;4.80;;;4.50;;
14396;SDS011;50653;47.810;13.022;2023-07-02T03:42:08;4.97;;;3.40;;
14396;SDS011;50653;47.810;13.022;2023-07-02T03:44:34;3.50;;;3.20;;
14396;SDS011;50653;47.810;13.022;2023-07-02T03:47:00;4.10;;;3.90;;
14396;SDS011;50653;47.810;13.022;2023-07-02T03:49:25;2.97;;;2.77;;
14396;SDS011;50653;47.810;13.022;2023-07-02T03:51:51;3.77;;;2.90;;
14396;SDS011;50653;47.810;13.022;2023-07-02T03:54:17;3.10;;;3.00;;
14396;SDS011;50653;47.810;13.022;2023-07-02T03:56:43;2.73;;;2.60;;
14396;SDS011;50653;47.810;13.022;2023-07-02T03:59:08;3.50;;;3.30;;
14396;SDS011;50653;47.810;13.022;2023-07-02T04:01:34;5.77;;;3.17;;
14396;SDS011;50653;47.810;13.022;2023-07-02T04:04:00;4.00;;;3.70;;
14396;SDS011;50653;47.810;13.022;2023-07-02T04:06:25;3.37;;;3.17;;
14396;SDS011;50653;47.810;13.022;2023-07-02T04:08:51;3.43;;;3.23;;
14396;SDS011;50653;47.810;13.022;2023-07-02T04:11:16;4.83;;;4.00;;
14396;SDS011;50653;47.810;13.022;2023-07-02T04:13:42;3.77;;;3.50;;
14396;SDS011;50653;47.810;13.022;2023-07-02T04:16:08;2.67;;;2.47;;
14396;SDS011;50653;47.810;13.022;2023-07-02T04:18:33;3.20;;;2.70;;
14396;SDS011;50653;47.810;13.022;2023-07-02T04:21:00;2.57;;;2.47;;
14396;SDS011;50653;47.810;13.022;2023-07-02T04:23:26;2.30;;;2.20;;
14396;SDS011;50653;47.810;13.022;2023-07-02T04:25:52;3.10;;;2.90;;
14396;SDS011;50653;47.810;13.022;2023-07-02T04:28:17;3.37;;;3.10;;
14396;SDS011;50653;47.810;13.022;2023-07-02T04:30:44;3.00;;;2.80;;
14396;SDS011;50653;47.810;13.022;2023-07-02T04:33:10;3.07;;;2.93;;
14396;SDS011;50653;47.810;13.022;2023-07-02T04:35:39;3.33;;;3.13;;
14396;SDS011;50653;47.810;13.022;2023-07-02T04:38:05;2.60;;;2.50;;
14396;SDS011;50653;47.810;13.022;2023-07-02T04:40:31;9.20;;;6.07;;
14396;SDS011;50653;47.810;13.022;2023-07-02T04:42:57;4.23;;;4.03;;
14396;SDS011;50653;47.810;13.022;2023-07-02T04:45:23;5.80;;;5.30;;
14396;SDS011;50653;47.810;13.022;2023-07-02T04:47:50;3.03;;;2.83;;
14396;SDS011;50653;47.810;13.022;2023-07-02T04:50:16;2.73;;;2.57;;
14396;SDS011;50653;47.810;13.022;2023-07-02T04:52:43;2.83;;;2.40;;
14396;SDS011;50653;47.810;13.022;2023-07-02T04:55:09;2.40;;;2.30;;
14396;SDS011;50653;47.810;13.022;2023-07-02T04:57:34;3.20;;;3.00;;
14396;SDS011;50653;47.810;13.022;2023-07-02T05:00:00;3.17;;;2.97;;
14396;SDS011;50653;47.810;13.022;2023-07-02T05:02:28;2.37;;;2.27;;
14396;SDS011;50653;47.810;13.022;2023-07-02T05:04:54;3.93;;;2.13;;
14396;SDS011;50653;47.810;13.022;2023-07-02T05:07:20;3.33;;;3.03;;
14396;SDS011;50653;47.810;13.022;2023-07-02T05:09:45;3.10;;;2.90;;
14396;SDS011;50653;47.810;13.022;2023-07-02T05:12:11;3.37;;;3.07;;
14396;SDS011;50653;47.810;13.022;2023-07-02T05:14:36;3.10;;;2.90;;
14396;SDS011;50653;47.810;13.022;2023-07-02T05:17:03;3.77;;;2.77;;
14396;SDS011;50653;47.810;13.022;2023-07-02T05:19:28;2.60;;;2.50;;
14396;SDS011;50653;47.810;13.022;2023-07-02T05:21:54;2.90;;;2.70;;
14396;SDS011;50653;47.810;13.022;2023-07-02T05:24:19;3.90;;;3.70;;
14396;SDS011;50653;47.810;13.022;2023-07-02T05:26:45;4.10;;;3.90;;
14396;SDS011;50653;47.810;13.022;2023-07-02T05:29:11;4.07;;;3.67;;
14396;SDS011;50653;47.810;13.022;2023-07-02T05:31:37;3.00;;;2.90;;
14396;SDS011;50653;47.810;13.022;2023-07-02T05:34:02;3.90;;;3.13;;
14396;SDS011;50653;47.810;13.022;2023-07-02T05:36:28;5.00;;;3.70;;
14396;SDS011;50653;47.810;13.022;2023-07-02T05:38:53;3.80;;;3.60;;
14396;SDS011;50653;47.810;13.022;2023-07-02T05:41:19;5.00;;;4.60;;
14396;SDS011;50653;47.810;13.022;2023-07-02T05:43:45;4.40;;;4.10;;
14396;SDS011;50653;47.810;13.022;2023-07-02T05:46:12;4.07;;;3.87;;
14396;SDS011;50653;47.810;13.022;2023-07-02T05:48:39;3.70;;;3.50;;
14396;SDS011;50653;47.810;13.022;2023-07-02T05:51:05;4.63;;;4.33;;
14396;SDS011;50653;47.810;13.022;2023-07-02T05:53:31;3.00;;;2.80;;
14396;SDS011;50653;47.810;13.022;2023-07-02T05:55:57;1.90;;;1.80;;
14396;SDS011;50653;47.810;13.022;2023-07-02T05:58:22;2.13;;;2.03;;
14396;SDS011;50653;47.810;13.022;2023-07-02T06:00:48;2.17;;;2.07;;
14396;SDS011;50653;47.810;13.022;2023-07-02T06:03:17;2.40;;;2.20;;
14396;SDS011;50653;47.810;13.022;2023-07-02T06:05:46;3.20;;;2.60;;
14396;SDS011;50653;47.810;13.022;2023-07-02T06:08:14;4.60;;;3.33;;
14396;SDS011;50653;47.810;13.022;2023-07-02T06:10:40;2.40;;;2.20;;
14396;SDS011;50653;47.810;13.022;2023-07-02T06:13:06;2.33;;;2.23;;
14396;SDS011;50653;47.810;13.022;2023-07-02T06:15:31;3.37;;;2.70;;
14396;SDS011;50653;47.810;13.022;2023-07-02T06:17:57;2.23;;;2.07;;
14396;SDS011;50653;47.810;13.022;2023-07-02T06:20:22;3.67;;;2.47;;
14396;SDS011;50653;47.810;13.022;2023-07-02T06:22:48;2.53;;;2.10;;
14396;SDS011;50653;47.810;13.022;2023-07-02T06:25:14;3.37;;;2.70;;
14396;SDS011;50653;47.810;13.022;2023-07-02T06:27:39;3.47;;;3.17;;
14396;SDS011;50653;47.810;13.022;2023-07-02T06:30:05;2.90;;;2.70;;
14396;SDS011;50653;47.810;13.022;2023-07-02T06:32:31;2.50;;;2.13;;
14396;SDS011;50653;47.810;13.022;2023-07-02T06:34:57;5.53;;;2.57;;
14396;SDS011;50653;47.810;13.022;2023-07-02T06:37:23;2.27;;;2.17;;
14396;SDS011;50653;47.810;13.022;2023-07-02T06:39:48;3.90;;;2.90;;
14396;SDS011;50653;47.810;13.022;2023-07-02T06:42:14;4.90;;;2.80;;
14396;SDS011;50653;47.810;13.022;2023-07-02T06:44:40;7.33;;;2.83;;
14396;SDS011;50653;47.810;13.022;2023-07-02T06:47:06;3.63;;;2.10;;
14396;SDS011;50653;47.810;13.022;2023-07-02T06:49:32;3.33;;;3.00;;
14396;SDS011;50653;47.810;13.022;2023-07-02T06:51:58;2.60;;;2.40;;
14396;SDS011;50653;47.810;13.022;2023-07-02T06:54:25;2.50;;;2.33;;
14396;SDS011;50653;47.810;13.022;2023-07-02T06:56:51;2.20;;;1.97;;
14396;SDS011;50653;47.810;13.022;2023-07-02T06:59:20;3.90;;;2.37;;
14396;SDS011;50653;47.810;13.022;2023-07-02T07:01:49;5.60;;;2.23;;
14396;SDS011;50653;47.810;13.022;2023-07-02T07:04:15;2.83;;;2.40;;
14396;SDS011;50653;47.810;13.022;2023-07-02T07:06:41;2.67;;;2.47;;
14396;SDS011;50653;47.810;13.022;2023-07-02T07:09:07;2.50;;;2.30;;
14396;SDS011;50653;47.810;13.022;2023-07-02T07:11:34;2.43;;;2.33;;
14396;SDS011;50653;47.810;13.022;2023-07-02T07:14:00;3.90;;;2.43;;
14396;SDS011;50653;47.810;13.022;2023-07-02T07:16:25;3.90;;;3.60;;
14396;SDS011;50653;47.810;13.022;2023-07-02T07:18:51;4.80;;;3.57;;
14396;SDS011;50653;47.810;13.022;2023-07-02T07:21:17;2.60;;;2.40;;
14396;SDS011;50653;47.810;13.022;2023-07-02T07:23:43;2.67;;;2.47;;
14396;SDS011;50653;47.810;13.022;2023-07-02T07:26:08;2.80;;;2.63;;
14396;SDS011;50653;47.810;13.022;2023-07-02T07:28:34;2.33;;;2.13;;
14396;SDS011;50653;47.810;13.022;2023-07-02T07:31:00;3.10;;;2.90;;
14396;SDS011;50653;47.810;13.022;2023-07-02T07:33:26;3.87;;;3.57;;
14396;SDS011;50653;47.810;13.022;2023-07-02T07:35:52;7.37;;;3.60;;
14396;SDS011;50653;47.810;13.022;2023-07-02T07:38:18;4.90;;;4.50;;
14396;SDS011;50653;47.810;13.022;2023-07-02T07:40:43;4.67;;;4.30;;
14396;SDS011;50653;47.810;13.022;2023-07-02T07:43:09;4.73;;;4.07;;
14396;SDS011;50653;47.810;13.022;2023-07-02T07:45:35;3.90;;;3.57;;
14396;SDS011;50653;47.810;13.022;2023-07-02T07:48:01;5.83;;;4.80;;
14396;SDS011;50653;47.810;13.022;2023-07-02T07:50:26;5.80;;;4.20;;
14396;SDS011;50653;47.810;13.022;2023-07-02T07:52:52;5.07;;;4.67;;
14396;SDS011;50653;47.810;13.022;2023-07-02T07:55:18;5.60;;;5.20;;
14396;SDS011;50653;47.810;13.022;2023-07-02T07:57:44;5.33;;;5.03;;
14396;SDS011;50653;47.810;13.022;2023-07-02T08:00:09;4.73;;;4.33;;
14396;SDS011;50653;47.810;13.022;2023-07-02T08:02:45;4.70;;;4.40;;
14396;SDS011;50653;47.810;13.022;2023-07-02T08:05:14;3.00;;;2.80;;
14396;SDS011;50653;47.810;13.022;2023-07-02T08:07:40;3.30;;;3.00;;
14396;SDS011;50653;47.810;13.022;2023-07-02T08:10:06;3.20;;;2.87;;
14396;SDS011;50653;47.810;13.022;2023-07-02T08:12:33;3.50;;;3.30;;
14396;SDS011;50653;47.810;13.022;2023-07-02T08:14:59;6.53;;;4.33;;
14396;SDS011;50653;47.810;13.022;2023-07-02T08:17:25;14.97;;;11.87;;
14396;SDS011;50653;47.810;13.022;2023-07-02T08:19:51;2.97;;;2.77;;
14396;SDS011;50653;47.810;13.022;2023-07-02T08:22:17;3.10;;;2.90;;
14396;SDS011;50653;47.810;13.022;2023-07-02T08:24:42;3.40;;;3.20;;
14396;SDS011;50653;47.810;13.022;2023-07-02T08:27:08;3.30;;;2.77;;
14396;SDS011;50653;47.810;13.022;2023-07-02T08:29:35;3.93;;;3.73;;
14396;SDS011;50653;47.810;13.022;2023-07-02T08:32:01;3.70;;;3.50;;
14396;SDS011;50653;47.810;13.022;2023-07-02T08:34:27;3.67;;;3.47;;
14396;SDS011;50653;47.810;13.022;2023-07-02T08:36:52;4.30;;;4.00;;
14396;SDS011;50653;47.810;13.022;2023-07-02T08:39:18;3.30;;;3.10;;
14396;SDS011;50653;47.810;13.022;2023-07-02T08:41:44;3.50;;;2.93;;
14396;SDS011;50653;47.810;13.022;2023-07-02T08:44:11;5.03;;;3.97;;
14396;SDS011;50653;47.810;13.022;2023-07-02T08:46:40;3.20;;;2.90;;
14396;SDS011;50653;47.810;13.022;2023-07-02T08:49:07;3.40;;;3.10;;
14396;SDS011;50653;47.810;13.022;2023-07-02T08:51:33;4.00;;;3.80;;
14396;SDS011;50653;47.810;13.022;2023-07-02T08:54:00;3.77;;;3.53;;
14396;SDS011;50653;47.810;13.022;2023-07-02T08:56:27;4.60;;;4.30;;
14396;SDS011;50653;47.810;13.022;2023-07-02T08:58:52;4.83;;;4.53;;
14396;SDS011;50653;47.810;13.022;2023-07-02T09:01:18;4.57;;;4.27;;
14396;SDS011;50653;47.810;13.022;2023-07-02T09:03:44;4.50;;;4.20;;
14396;SDS011;50653;47.810;13.022;2023-07-02T09:06:10;3.80;;;3.60;;
14396;SDS011;50653;47.810;13.022;2023-07-02T09:08:37;5.60;;;4.23;;
14396;SDS011;50653;47.810;13.022;2023-07-02T09:13:56;4.23;;;3.83;;
14396;SDS011;50653;47.810;13.022;2023-07-02T09:16:30;3.70;;;3.50;;
14396;SDS011;50653;47.810;13.022;2023-07-02T09:19:02;3.07;;;2.93;;
14396;SDS011;50653;47.810;13.022;2023-07-02T09:21:38;5.80;;;3.80;;
14396;SDS011;50653;47.810;13.022;2023-07-02T09:24:19;3.70;;;3.50;;
14396;SDS011;50653;47.810;13.022;2023-07-02T09:26:47;4.33;;;4.03;;
14396;SDS011;50653;47.810;13.022;2023-07-02T09:29:18;9.27;;;7.70;;
14396;SDS011;50653;47.810;13.022;2023-07-02T09:31:49;4.20;;;3.83;;
14396;SDS011;50653;47.810;13.022;2023-07-02T09:34:15;3.63;;;3.33;;
14396;SDS011;50653;47.810;13.022;2023-07-02T09:36:41;4.33;;;3.93;;
14396;SDS011;50653;47.810;13.022;2023-07-02T09:39:29;4.00;;;3.80;;
14396;SDS011;50653;47.810;13.022;2023-07-02T09:41:55;3.83;;;3.30;;
14396;SDS011;50653;47.810;13.022;2023-07-02T09:44:29;4.47;;;3.80;;
14396;SDS011;50653;47.810;13.022;2023-07-02T09:49:32;4.50;;;4.20;;
14396;SDS011;50653;47.810;13.022;2023-07-02T09:52:11;8.27;;;3.60;;
14396;SDS011;50653;47.810;13.022;2023-07-02T09:54:38;3.90;;;3.60;;
14396;SDS011;50653;47.810;13.022;2023-07-02T09:57:04;11.93;;;4.97;;
14396;SDS011;50653;47.810;13.022;2023-07-02T09:59:34;4.60;;;4.30;;
14396;SDS011;50653;47.810;13.022;2023-07-02T10:02:00;3.87;;;3.57;;
14396;SDS011;50653;47.810;13.022;2023-07-02T10:04:25;3.90;;;3.70;;
14396;SDS011;50653;47.810;13.022;2023-07-02T10:06:55;3.03;;;2.73;;
14396;SDS011;50653;47.810;13.022;2023-07-02T10:09:34;7.43;;;3.20;;
14396;SDS011;50653;47.810;13.022;2023-07-02T10:12:01;2.97;;;2.80;;
14396;SDS011;50653;47.810;13.022;2023-07-02T10:14:27;4.10;;;3.90;;
14396;SDS011;50653;47.810;13.022;2023-07-02T10:17:04;7.63;;;6.80;;
14396;SDS011;50653;47.810;13.022;2023-07-02T10:19:30;5.10;;;4.90;;
14396;SDS011;50653;47.810;13.022;2023-07-02T10:22:02;3.70;;;3.50;;
14396;SDS011;50653;47.810;13.022;2023-07-02T10:24:29;4.40;;;4.20;;
14396;SDS011;50653;47.810;13.022;2023-07-02T10:26:59;4.90;;;4.30;;
14396;SDS011;50653;47.810;13.022;2023-07-02T10:29:26;4.77;;;4.47;;
14396;SDS011;50653;47.810;13.022;2023-07-02T10:31:53;4.30;;;4.00;;
14396;SDS011;50653;47.810;13.022;2023-07-02T10:34:32;4.23;;;3.87;;
14396;SDS011;50653;47.810;13.022;2023-07-02T10:37:00;6.23;;;5.73;;
14396;SDS011;50653;47.810;13.022;2023-07-02T10:39:26;4.63;;;4.33;;
14396;SDS011;50653;47.810;13.022;2023-07-02T10:41:52;3.77;;;3.57;;
14396;SDS011;50653;47.810;13.022;2023-07-02T10:44:17;4.90;;;4.70;;
14396;SDS011;50653;47.810;13.022;2023-07-02T10:46:46;2.77;;;2.57;;
14396;SDS011;50653;47.810;13.022;2023-07-02T10:49:13;3.50;;;3.30;;
14396;SDS011;50653;47.810;13.022;2023-07-02T10:51:42;4.57;;;4.37;;
14396;SDS011;50653;47.810;13.022;2023-07-02T10:54:08;4.47;;;4.17;;
14396;SDS011;50653;47.810;13.022;2023-07-02T10:56:34;5.30;;;5.00;;
14396;SDS011;50653;47.810;13.022;2023-07-02T10:59:00;6.57;;;6.00;;
14396;SDS011;50653;47.810;13.022;2023-07-02T11:01:29;6.10;;;5.60;;
14396;SDS011;50653;47.810;13.022;2023-07-02T11:06:22;7.13;;;6.83;;
14396;SDS011;50653;47.810;13.022;2023-07-02T11:08:48;5.90;;;5.30;;
14396;SDS011;50653;47.810;13.022;2023-07-02T11:11:13;4.60;;;4.30;;
14396;SDS011;50653;47.810;13.022;2023-07-02T11:13:45;4.43;;;4.23;;
14396;SDS011;50653;47.810;13.022;2023-07-02T11:16:25;3.70;;;3.40;;
14396;SDS011;50653;47.810;13.022;2023-07-02T11:18:53;2.00;;;1.90;;
14396;SDS011;50653;47.810;13.022;2023-07-02T11:21:36;2.20;;;2.10;;
14396;SDS011;50653;47.810;13.022;2023-07-02T11:24:02;2.17;;;2.03;;
14396;SDS011;50653;47.810;13.022;2023-07-02T11:29:02;1.90;;;1.80;;
14396;SDS011;50653;47.810;13.022;2023-07-02T11:31:28;2.03;;;1.70;;
14396;SDS011;50653;47.810;13.022;2023-07-02T11:33:54;1.47;;;1.10;;
14396;SDS011;50653;47.810;13.022;2023-07-02T11:36:21;1.13;;;1.03;;
14396;SDS011;50653;47.810;13.022;2023-07-02T11:38:49;2.03;;;1.43;;
14396;SDS011;50653;47.810;13.022;2023-07-02T11:41:16;1.30;;;1.17;;
14396;SDS011;50653;47.810;13.022;2023-07-02T11:43:42;1.20;;;1.10;;
14396;SDS011;50653;47.810;13.022;2023-07-02T11:46:08;1.57;;;1.47;;
14396;SDS011;50653;47.810;13.022;2023-07-02T11:48:33;1.00;;;0.93;;
14396;SDS011;50653;47.810;13.022;2023-07-02T11:50:59;1.90;;;1.80;;
14396;SDS011;50653;47.810;13.022;2023-07-02T11:53:24;3.00;;;2.67;;
14396;SDS011;50653;47.810;13.022;2023-07-02T11:55:50;2.47;;;2.37;;
14396;SDS011;50653;47.810;13.022;2023-07-02T11:58:16;2.97;;;2.60;;
14396;SDS011;50653;47.810;13.022;2023-07-02T12:00:42;2.37;;;2.10;;
14396;SDS011;50653;47.810;13.022;2023-07-02T12:03:07;2.87;;;2.67;;
14396;SDS011;50653;47.810;13.022;2023-07-02T12:05:33;2.53;;;2.43;;
14396;SDS011;50653;47.810;13.022;2023-07-02T12:07:59;4.00;;;3.70;;
14396;SDS011;50653;47.810;13.022;2023-07-02T12:10:26;6.77;;;6.27;;
14396;SDS011;50653;47.810;13.022;2023-07-02T12:12:52;5.23;;;4.90;;
14396;SDS011;50653;47.810;13.022;2023-07-02T12:15:17;4.07;;;3.87;;
14396;SDS011;50653;47.810;13.022;2023-07-02T12:17:43;4.30;;;4.10;;
14396;SDS011;50653;47.810;13.022;2023-07-02T12:20:09;5.47;;;4.97;;
14396;SDS011;50653;47.810;13.022;2023-07-02T12:22:35;5.40;;;4.90;;
14396;SDS011;50653;47.810;13.022;2023-07-02T12:25:00;6.33;;;4.47;;
14396;SDS011;50653;47.810;13.022;2023-07-02T12:27:26;4.80;;;4.50;;
14396;SDS011;50653;47.810;13.022;2023-07-02T12:29:52;4.17;;;3.87;;
14396;SDS011;50653;47.810;13.022;2023-07-02T12:32:18;5.10;;;4.70;;
14396;SDS011;50653;47.810;13.022;2023-07-02T12:34:43;9.80;;;8.80;;
14396;SDS011;50653;47.810;13.022;2023-07-02T12:37:09;4.63;;;4.33;;
14396;SDS011;50653;47.810;13.022;2023-07-02T12:39:35;6.33;;;5.03;;
14396;SDS011;50653;47.810;13.022;2023-07-02T12:42:00;4.23;;;4.03;;
14396;SDS011;50653;47.810;13.022;2023-07-02T12:44:26;4.37;;;4.07;;
14396;SDS011;50653;47.810;13.022;2023-07-02T12:46:51;5.03;;;4.40;;
14396;SDS011;50653;47.810;13.022;2023-07-02T12:49:17;5.27;;;4.47;;
14396;SDS011;50653;47.810;13.022;2023-07-02T12:51:43;5.20;;;4.70;;
14396;SDS011;50653;47.810;13.022;2023-07-02T12:54:08;6.00;;;5.00;;
14396;SDS011;50653;47.810;13.022;2023-07-02T12:56:34;6.93;;;6.23;;
14396;SDS011;50653;47.810;13.022;2023-07-02T12:59:01;5.93;;;5.33;;
14396;SDS011;50653;47.810;13.022;2023-07-02T13:01:27;6.57;;;5.93;;
14396;SDS011;50653;47.810;13.022;2023-07-02T13:03:53;7.13;;;6.43;;
14396;SDS011;50653;47.810;13.022;2023-07-02T13:06:19;8.10;;;6.40;;
14396;SDS011;50653;47.810;13.022;2023-07-02T13:08:44;5.03;;;4.63;;
14396;SDS011;50653;47.810;13.022;2023-07-02T13:11:10;7.20;;;6.10;;
14396;SDS011;50653;47.810;13.022;2023-07-02T13:13:36;6.63;;;6.13;;
14396;SDS011;50653;47.810;13.022;2023-07-02T13:16:02;8.73;;;5.50;;
14396;SDS011;50653;47.810;13.022;2023-07-02T13:18:28;7.10;;;6.43;;
14396;SDS011;50653;47.810;13.022;2023-07-02T13:20:53;7.73;;;7.00;;
14396;SDS011;50653;47.810;13.022;2023-07-02T13:23:19;7.83;;;6.57;;
14396;SDS011;50653;47.810;13.022;2023-07-02T13:25:44;7.07;;;6.47;;
14396;SDS011;50653;47.810;13.022;2023-07-02T13:28:10;9.20;;;6.63;;
14396;SDS011;50653;47.810;13.022;2023-07-02T13:30:36;7.30;;;6.60;;
14396;SDS011;50653;47.810;13.022;2023-07-02T13:33:01;6.73;;;6.13;;
14396;SDS011;50653;47.810;13.022;2023-07-02T13:35:27;6.27;;;5.63;;
14396;SDS011;50653;47.810;13.022;2023-07-02T13:37:53;6.60;;;6.13;;
14396;SDS011;50653;47.810;13.022;2023-07-02T13:40:18;8.87;;;7.03;;
14396;SDS011;50653;47.810;13.022;2023-07-02T13:42:45;7.97;;;7.17;;
14396;SDS011;50653;47.810;13.022;2023-07-02T13:45:10;6.93;;;6.23;;
14396;SDS011;50653;47.810;13.022;2023-07-02T13:47:36;6.67;;;6.13;;
14396;SDS011;50653;47.810;13.022;2023-07-02T13:50:02;6.60;;;6.00;;
14396;SDS011;50653;47.810;13.022;2023-07-02T13:52:31;6.60;;;6.00;;
14396;SDS011;50653;47.810;13.022;2023-07-02T13:54:57;6.00;;;5.50;;
14396;SDS011;50653;47.810;13.022;2023-07-02T13:57:24;7.33;;;6.57;;
14396;SDS011;50653;47.810;13.022;2023-07-02T13:59:49;4.73;;;4.43;;
14396;SDS011;50653;47.810;13.022;2023-07-02T14:02:15;7.67;;;6.77;;
14396;SDS011;50653;47.810;13.022;2023-07-02T14:04:41;6.33;;;5.80;;
14396;SDS011;50653;47.810;13.022;2023-07-02T14:07:07;7.33;;;6.73;;
14396;SDS011;50653;47.810;13.022;2023-07-02T14:09:33;6.23;;;5.60;;
14396;SDS011;50653;47.810;13.022;2023-07-02T14:11:58;7.03;;;6.47;;
14396;SDS011;50653;47.810;13.022;2023-07-02T14:14:24;6.83;;;6.17;;
14396;SDS011;50653;47.810;13.022;2023-07-02T14:16:49;10.03;;;8.00;;
14396;SDS011;50653;47.810;13.022;2023-07-02T14:19:15;7.60;;;6.97;;
14396;SDS011;50653;47.810;13.022;2023-07-02T14:21:42;7.43;;;6.83;;
14396;SDS011;50653;47.810;13.022;2023-07-02T14:24:08;8.13;;;7.43;;
14396;SDS011;50653;47.810;13.022;2023-07-02T14:26:34;7.07;;;6.33;;
14396;SDS011;50653;47.810;13.022;2023-07-02T14:28:59;7.20;;;6.70;;
14396;SDS011;50653;47.810;13.022;2023-07-02T14:31:25;8.87;;;7.43;;
14396;SDS011;50653;47.810;13.022;2023-07-02T14:33:51;7.80;;;5.80;;
14396;SDS011;50653;47.810;13.022;2023-07-02T14:36:16;7.97;;;7.03;;
14396;SDS011;50653;47.810;13.022;2023-07-02T14:38:42;7.87;;;7.27;;
14396;SDS011;50653;47.810;13.022;2023-07-02T14:41:08;6.87;;;6.37;;